createdAt,value
2022-10-23T00:04:54.936Z,96.98
2022-10-23T00:09:56.646Z,96.47
2022-10-23T00:14:58.375Z,96.51
2022-10-23T00:20:00.228Z,96.54
2022-10-23T00:25:02.122Z,95.26
2022-10-23T00:30:05.305Z,95.07
2022-10-23T00:35:07.317Z,95.13
2022-10-23T00:40:09.773Z,94.59
2022-10-23T00:45:14.572Z,93.97
2022-10-23T00:50:17.024Z,93.68
2022-10-23T00:55:21.897Z,94.29
2022-10-23T01:00:46.243Z,94.54
2022-10-23T01:06:00.309Z,94.57
2022-10-23T01:11:15.274Z,94.29
2022-10-23T01:16:23.604Z,94.21
2022-10-23T01:21:48.616Z,93.64
2022-10-23T01:27:10.853Z,93.64
2022-10-23T01:32:19.833Z,93.21
2022-10-23T01:37:28.471Z,92.29
2022-10-23T01:42:41.329Z,91.74
2022-10-23T01:47:45.197Z,92.02
2022-10-23T01:52:49.521Z,91.80
2022-10-23T01:57:53.383Z,92.46
2022-10-23T02:02:57.569Z,93.49
2022-10-23T02:08:07.431Z,94.54
2022-10-23T02:13:19.322Z,95.06
2022-10-23T02:18:33.545Z,94.89
2022-10-23T02:23:55.333Z,93.33
2022-10-23T02:29:14.408Z,92.90
2022-10-23T02:34:20.123Z,92.89
2022-10-23T02:39:24.286Z,91.84
2022-10-23T02:44:33.461Z,91.24
2022-10-23T02:49:49.004Z,91.39
2022-10-23T02:54:57.848Z,91.85
2022-10-23T03:00:04.868Z,90.47
2022-10-23T03:05:11.989Z,90.62
2022-10-23T03:10:14.506Z,90.80
2022-10-23T03:15:17.422Z,90.46
2022-10-23T03:20:19.212Z,90.84
2022-10-23T03:25:20.995Z,89.99
2022-10-23T03:30:22.689Z,90.31
2022-10-23T03:35:29.151Z,90.31
2022-10-23T03:40:31.313Z,88.93
2022-10-23T03:45:33.055Z,89.37
2022-10-23T03:50:35.800Z,88.69
2022-10-23T03:55:37.499Z,89.66
2022-10-23T04:00:39.333Z,90.37
2022-10-23T04:05:43.256Z,89.07
2022-10-23T04:10:45.342Z,89.03
2022-10-23T04:15:51.886Z,89.08
2022-10-23T04:20:54.017Z,88.43
2022-10-23T04:25:57.926Z,89.24
2022-10-23T04:31:01.294Z,90.07
2022-10-23T04:36:03.383Z,89.77
2022-10-23T04:41:05.218Z,89.55
2022-10-23T04:46:07.721Z,89.37
2022-10-23T04:51:10.382Z,89.86
2022-10-23T04:56:30.664Z,90.14
2022-10-23T05:01:39.265Z,90.72
2022-10-23T05:06:43.097Z,91.00
2022-10-23T05:11:56.650Z,91.57
2022-10-23T05:17:02.630Z,91.32
2022-10-23T05:22:05.070Z,91.15
2022-10-23T05:27:21.630Z,90.59
2022-10-23T05:32:27.367Z,91.06
2022-10-23T05:37:29.498Z,91.58
2022-10-23T05:42:53.977Z,92.38
2022-10-23T05:48:11.281Z,92.26
2022-10-23T05:53:40.239Z,92.51
2022-10-23T05:59:23.278Z,93.07
2022-10-23T06:04:43.530Z,94.17
2022-10-23T06:10:00.816Z,94.75
2022-10-23T06:15:03.561Z,94.82
2022-10-23T06:20:27.947Z,94.39
2022-10-23T06:25:45.095Z,94.42
2022-10-23T06:30:47.703Z,94.01
2022-10-23T06:35:49.556Z,94.30
2022-10-23T06:40:56.628Z,94.68
2022-10-23T06:46:10.231Z,94.57
2022-10-23T06:51:31.957Z,95.40
2022-10-23T06:56:35.095Z,96.44
2022-10-23T07:01:40.683Z,97.20
2022-10-23T07:06:44.547Z,97.97
2022-10-23T07:11:46.222Z,98.82
2022-10-23T07:16:48.124Z,98.84
2022-10-23T07:21:50.530Z,99.56
2022-10-23T07:27:09.458Z,100.00
2022-10-23T07:32:11.222Z,100.00
2022-10-23T07:37:31.839Z,100.00
2022-10-23T07:42:36.584Z,100.00
2022-10-23T07:47:38.452Z,100.00
2022-10-23T07:52:40.343Z,100.00
2022-10-23T07:57:47.019Z,100.00
2022-10-23T08:03:12.717Z,100.00
2022-10-23T08:08:14.832Z,100.00
2022-10-23T08:13:21.325Z,100.00
2022-10-23T08:18:40.927Z,100.00
2022-10-23T08:23:43.211Z,99.99
2022-10-23T08:28:45.296Z,99.54
2022-10-23T08:38:55.876Z,99.11
2022-10-23T08:44:13.361Z,98.87
2022-10-23T08:49:24.199Z,98.73
2022-10-23T08:54:40.787Z,97.98
2022-10-23T08:59:42.456Z,97.70
2022-10-23T09:04:47.715Z,97.56
2022-10-23T09:10:18.710Z,97.08
2022-10-23T09:15:42.284Z,96.20
2022-10-23T09:20:45.472Z,94.74
2022-10-23T09:25:49.240Z,94.41
2022-10-23T09:30:52.254Z,93.13
2022-10-23T09:35:58.417Z,92.10
2022-10-23T09:41:13.831Z,92.28
2022-10-23T09:46:15.669Z,92.11
2022-10-23T09:51:20.940Z,91.05
2022-10-23T09:56:30.432Z,90.60
2022-10-23T10:01:38.449Z,89.00
2022-10-23T10:07:02.001Z,88.34
2022-10-23T10:12:24.995Z,87.04
2022-10-23T10:17:49.971Z,86.09
2022-10-23T10:23:13.966Z,85.51
2022-10-23T10:28:41.724Z,84.58
2022-10-23T10:34:02.623Z,83.71
2022-10-23T10:39:15.690Z,81.73
2022-10-23T10:44:32.614Z,80.14
2022-10-23T10:50:00.573Z,78.69
2022-10-23T10:55:33.940Z,78.55
2022-10-23T11:00:35.775Z,78.94
2022-10-23T11:05:44.347Z,78.17
2022-10-23T11:10:53.204Z,77.56
2022-10-23T11:16:26.370Z,76.12
2022-10-23T11:21:41.077Z,75.96
2022-10-23T11:27:10.795Z,76.03
2022-10-23T11:32:50.228Z,74.23
2022-10-23T11:38:01.326Z,74.14
2022-10-23T11:43:03.098Z,75.21
2022-10-23T11:48:14.264Z,75.04
2022-10-23T11:53:38.499Z,74.32
2022-10-23T11:58:56.495Z,73.13
2022-10-23T12:04:01.197Z,73.39
2022-10-23T12:09:18.366Z,73.92
2022-10-23T12:14:33.418Z,74.13
2022-10-23T12:19:47.261Z,74.36
2022-10-23T12:25:15.819Z,73.72
2022-10-23T12:30:28.880Z,73.54
2022-10-23T12:35:36.627Z,73.68
2022-10-23T12:40:38.550Z,72.72
2022-10-23T12:45:42.481Z,73.03
2022-10-23T12:50:54.513Z,73.19
2022-10-23T13:01:05.544Z,72.70
2022-10-23T13:06:10.149Z,73.48
2022-10-23T13:11:16.740Z,73.50
2022-10-23T13:16:23.777Z,73.23
2022-10-23T13:21:28.618Z,73.67
2022-10-23T13:26:44.844Z,73.71
2022-10-23T13:31:47.182Z,73.63
2022-10-23T13:37:04.084Z,73.47
2022-10-23T13:42:15.439Z,73.85
2022-10-23T13:47:17.528Z,74.13
2022-10-23T13:52:23.325Z,74.48
2022-10-23T13:57:25.969Z,74.90
2022-10-23T14:02:27.723Z,74.79
2022-10-23T14:07:29.671Z,74.73
2022-10-23T14:12:31.507Z,75.04
2022-10-23T14:17:34.702Z,74.00
2022-10-23T14:22:36.682Z,74.13
2022-10-23T14:27:38.783Z,73.66
2022-10-23T14:32:41.090Z,73.96
2022-10-23T14:37:43.118Z,74.22
2022-10-23T14:42:45.289Z,74.50
2022-10-23T14:47:47.322Z,75.52
2022-10-23T14:52:49.065Z,75.90
2022-10-23T14:57:55.673Z,76.59
2022-10-23T15:02:57.516Z,77.03
2022-10-23T15:07:59.266Z,77.61
2022-10-23T15:13:00.899Z,78.79
2022-10-23T15:18:02.617Z,79.42
2022-10-23T15:23:04.371Z,80.11
2022-10-23T15:28:06.143Z,81.20
2022-10-23T15:33:07.846Z,82.40
2022-10-23T15:38:09.481Z,83.46
2022-10-23T15:43:15.822Z,84.16
2022-10-23T15:48:17.547Z,84.85
2022-10-23T15:53:19.247Z,86.36
2022-10-23T15:58:20.875Z,87.16
2022-10-23T16:03:22.639Z,87.61
2022-10-23T16:08:26.050Z,88.55
2022-10-23T16:13:28.197Z,88.97
2022-10-23T16:18:29.859Z,88.54
2022-10-23T16:23:33.279Z,86.45
2022-10-23T16:28:35.107Z,86.74
2022-10-23T16:33:36.807Z,86.86
2022-10-23T16:38:38.411Z,86.84
2022-10-23T16:43:40.248Z,88.00
2022-10-23T16:49:02.845Z,88.11
2022-10-23T16:54:05.004Z,88.22
2022-10-23T16:59:06.964Z,88.80
2022-10-23T17:04:08.730Z,88.00
2022-10-23T17:09:10.474Z,87.86
2022-10-23T17:14:17.386Z,88.10
2022-10-23T17:24:46.239Z,88.09
2022-10-23T17:29:50.632Z,88.30
2022-10-23T17:34:52.332Z,88.10
2022-10-23T17:39:53.994Z,88.02
2022-10-23T17:44:55.679Z,88.03
2022-10-23T17:49:57.402Z,87.72
2022-10-23T17:54:59.206Z,86.58
2022-10-23T18:00:00.931Z,88.08
2022-10-23T18:05:02.547Z,88.88
2022-10-23T18:10:05.323Z,88.70
2022-10-23T18:15:07.307Z,89.36
2022-10-23T18:20:10.759Z,90.02
2022-10-23T18:25:12.394Z,91.06
2022-10-23T18:30:14.384Z,91.90
2022-10-23T18:35:16.567Z,92.63
2022-10-23T18:40:18.507Z,92.77
2022-10-23T18:45:20.273Z,92.98
2022-10-23T18:50:21.925Z,92.90
2022-10-23T18:55:23.610Z,92.70
2022-10-23T19:00:25.271Z,92.44
2022-10-23T19:05:26.948Z,92.53
2022-10-23T19:10:31.533Z,92.25
2022-10-23T19:15:35.816Z,92.03
2022-10-23T19:20:37.762Z,91.05
2022-10-23T19:25:39.571Z,91.28
2022-10-23T19:30:41.353Z,91.44
2022-10-23T19:35:43.059Z,91.63
2022-10-23T19:40:44.972Z,91.77
2022-10-23T19:45:46.751Z,91.68
2022-10-23T19:50:48.743Z,91.21
2022-10-23T19:55:50.441Z,91.92
2022-10-23T20:00:52.115Z,91.85
2022-10-23T20:05:53.811Z,92.39
2022-10-23T20:15:57.187Z,93.67
2022-10-23T20:21:02.357Z,93.60
2022-10-23T20:26:08.816Z,92.88
2022-10-23T20:31:11.566Z,92.90
2022-10-23T20:36:30.368Z,92.95
2022-10-23T20:41:33.687Z,93.35
2022-10-23T20:46:35.635Z,93.35
2022-10-23T20:51:37.550Z,93.29
2022-10-23T20:56:39.551Z,93.62
2022-10-23T21:01:43.719Z,93.84
2022-10-23T21:07:04.724Z,94.37
2022-10-23T21:12:09.001Z,94.37
2022-10-23T21:17:16.436Z,94.49
2022-10-23T21:22:18.129Z,94.13
2022-10-23T21:27:19.909Z,93.88
2022-10-23T21:32:21.636Z,94.02
2022-10-23T21:37:24.999Z,93.89
2022-10-23T21:42:26.678Z,94.17
2022-10-23T21:47:28.373Z,94.23
2022-10-23T21:52:30.063Z,94.49
2022-10-23T21:57:32.817Z,95.29
2022-10-23T22:02:34.545Z,95.85
2022-10-23T22:07:36.475Z,95.35
2022-10-23T22:12:38.277Z,95.17
2022-10-23T22:17:40.198Z,95.64
2022-10-23T22:22:41.809Z,95.80
2022-10-23T22:27:43.748Z,96.56
2022-10-23T22:32:45.975Z,95.80
2022-10-23T22:37:47.982Z,95.02
2022-10-23T22:42:49.775Z,94.22
2022-10-23T22:47:51.463Z,93.15
2022-10-23T22:52:53.099Z,92.31
2022-10-23T22:57:54.802Z,91.10
2022-10-23T23:02:58.870Z,90.23
2022-10-23T23:08:00.806Z,89.84
2022-10-23T23:13:02.535Z,90.26
2022-10-23T23:18:04.260Z,90.21
2022-10-23T23:23:06.606Z,91.17
2022-10-23T23:28:08.374Z,92.27
2022-10-23T23:33:12.113Z,94.25
2022-10-23T23:38:14.294Z,94.56
2022-10-23T23:43:16.453Z,95.69
2022-10-23T23:48:18.102Z,95.93
2022-10-23T23:53:19.805Z,96.22
2022-10-23T23:58:21.901Z,95.97
